createdAt,value
2019-03-10T00:03:35.218Z,13.27
2019-03-10T00:21:33.391Z,16.33
2019-03-10T00:25:42.908Z,12.97
2019-03-10T00:29:52.460Z,12.80
2019-03-10T00:33:59.152Z,14.10
2019-03-10T00:38:08.934Z,14.00
2019-03-10T00:42:47.322Z,14.10
2019-03-10T00:47:26.910Z,12.83
2019-03-10T00:51:46.265Z,12.87
2019-03-10T00:55:53.087Z,10.50
2019-03-10T01:00:00.639Z,13.27
2019-03-10T01:04:29.254Z,10.53
2019-03-10T01:08:39.824Z,12.53
2019-03-10T01:12:48.128Z,7.00
2019-03-10T01:16:54.955Z,9.77
2019-03-10T01:21:06.407Z,6.47
2019-03-10T01:25:14.349Z,2.20
2019-03-10T01:29:21.660Z,4.53
2019-03-10T01:33:26.706Z,3.83
2019-03-10T01:37:35.988Z,3.77
2019-03-10T01:45:52.570Z,5.03
2019-03-10T01:50:00.444Z,4.90
2019-03-10T01:54:10.525Z,3.90
2019-03-10T01:58:16.934Z,5.10
2019-03-10T02:02:27.560Z,5.30
2019-03-10T02:06:38.216Z,5.43
2019-03-10T02:10:48.288Z,4.97
2019-03-10T02:14:54.721Z,2.43
2019-03-10T02:19:02.235Z,5.63
2019-03-10T02:23:08.635Z,6.83
2019-03-10T02:27:17.001Z,5.70
2019-03-10T02:35:36.672Z,5.30
2019-03-10T02:39:44.826Z,7.17
2019-03-10T02:43:53.506Z,4.27
2019-03-10T02:48:05.744Z,7.33
2019-03-10T02:52:15.615Z,9.27
2019-03-10T02:56:22.139Z,6.50
2019-03-10T03:00:34.875Z,4.87
2019-03-10T03:04:41.273Z,7.60
2019-03-10T03:08:50.029Z,6.67
2019-03-10T03:13:18.106Z,6.67
2019-03-10T03:17:24.897Z,5.73
2019-03-10T03:56:10.198Z,11.97
2019-03-10T04:04:25.960Z,9.00
2019-03-10T05:17:17.584Z,9.40
2019-03-10T05:21:27.600Z,15.13
2019-03-10T05:25:34.481Z,13.03
2019-03-10T05:34:46.424Z,7.47
2019-03-10T05:38:52.957Z,8.67
2019-03-10T05:43:01.866Z,5.70
2019-03-10T05:47:08.158Z,8.23
2019-03-10T05:51:16.225Z,10.47
2019-03-10T05:55:45.686Z,3.87
2019-03-10T08:50:42.503Z,7.77
2019-03-10T08:54:37.629Z,11.27
2019-03-10T08:59:00.607Z,7.73
2019-03-10T09:12:29.666Z,10.63
2019-03-10T09:21:20.553Z,12.50
2019-03-10T09:25:45.738Z,13.30
2019-03-10T09:34:40.374Z,7.37
2019-03-10T09:38:57.423Z,7.67
2019-03-10T09:43:17.369Z,10.47
2019-03-10T09:47:37.203Z,8.40
2019-03-10T09:51:57.140Z,10.67
2019-03-10T09:56:20.390Z,9.83
2019-03-10T10:00:48.019Z,6.73
2019-03-10T10:05:19.519Z,8.70
2019-03-10T11:14:22.809Z,11.70
2019-03-10T12:19:23.070Z,9.43
2019-03-10T12:23:29.814Z,15.57
2019-03-10T12:27:58.445Z,9.37
2019-03-10T12:32:12.438Z,11.47
2019-03-10T12:36:21.902Z,5.10
2019-03-10T12:57:37.787Z,10.30
2019-03-10T13:01:45.188Z,7.67
2019-03-10T13:05:52.302Z,8.37
2019-03-10T13:10:03.007Z,14.33
2019-03-10T13:14:10.551Z,12.60
2019-03-10T13:18:20.770Z,9.97
2019-03-10T13:22:27.403Z,8.90
2019-03-10T13:48:15.231Z,10.37
2019-03-10T13:52:21.617Z,9.80
2019-03-10T13:56:49.709Z,16.13
2019-03-10T15:01:35.708Z,10.80
2019-03-10T15:05:48.525Z,13.43
2019-03-10T15:09:57.589Z,11.70
2019-03-10T15:14:04.748Z,11.93
2019-03-10T15:18:12.530Z,7.70
2019-03-10T15:22:22.630Z,12.90
2019-03-10T15:26:45.204Z,13.13
2019-03-10T15:30:45.189Z,8.93
2019-03-10T15:34:52.895Z,12.33
2019-03-10T15:39:02.024Z,8.53
2019-03-10T15:43:12.001Z,14.03
2019-03-10T15:47:21.133Z,15.07
2019-03-10T15:51:28.161Z,11.60
2019-03-10T15:55:43.643Z,11.73
2019-03-10T15:59:50.564Z,11.33
2019-03-10T16:04:04.286Z,14.23
2019-03-10T16:26:05.933Z,13.17
2019-03-10T16:30:15.782Z,14.47
2019-03-10T16:34:23.147Z,13.47
2019-03-10T16:38:32.054Z,17.93
2019-03-10T16:42:38.568Z,14.70
2019-03-10T16:51:11.869Z,11.77
2019-03-10T16:55:18.359Z,9.33
2019-03-10T16:59:27.405Z,12.20
2019-03-10T17:03:33.817Z,11.93
2019-03-10T17:11:52.540Z,10.50
2019-03-10T17:16:09.569Z,11.00
2019-03-10T17:20:16.672Z,13.60
2019-03-10T17:24:28.756Z,15.87
2019-03-10T17:28:37.094Z,11.17
2019-03-10T17:32:50.229Z,14.47
2019-03-10T17:37:07.292Z,14.33
2019-03-10T17:41:16.401Z,19.70
2019-03-10T17:58:22.218Z,19.40
2019-03-10T18:02:37.818Z,15.77
2019-03-10T18:11:10.989Z,25.53
2019-03-10T18:15:17.807Z,22.93
2019-03-10T18:19:28.875Z,23.33
2019-03-10T18:23:35.269Z,16.87
2019-03-10T18:27:45.453Z,19.50
2019-03-10T18:31:54.755Z,17.90
2019-03-10T18:36:01.652Z,23.07
2019-03-10T18:40:12.119Z,22.00
2019-03-10T18:44:23.440Z,27.57
2019-03-10T18:48:35.654Z,23.07
2019-03-10T19:32:17.898Z,24.67
2019-03-10T19:36:28.306Z,27.60
2019-03-10T19:40:34.769Z,27.20
2019-03-10T19:44:43.751Z,26.83
2019-03-10T19:48:54.177Z,27.93
2019-03-10T19:53:02.636Z,29.10
2019-03-10T19:57:09.092Z,26.27
2019-03-10T20:01:18.248Z,28.10
2019-03-10T20:05:27.854Z,32.87
2019-03-10T20:09:35.685Z,37.43
2019-03-10T20:13:59.787Z,39.70
2019-03-10T20:18:07.838Z,34.40
2019-03-10T20:22:17.933Z,35.33
2019-03-10T20:26:29.419Z,34.67
2019-03-10T20:30:48.533Z,35.77
2019-03-10T20:34:56.271Z,35.30
2019-03-10T20:39:07.701Z,37.93
2019-03-10T20:43:16.351Z,32.00
2019-03-10T20:47:27.602Z,34.40
2019-03-10T20:51:34.090Z,31.47
2019-03-10T20:55:40.608Z,30.60
2019-03-10T21:00:00.246Z,26.67
2019-03-10T21:04:02.266Z,23.67
2019-03-10T21:08:15.524Z,28.73
2019-03-10T21:12:26.961Z,28.67
2019-03-10T21:16:32.522Z,26.70
2019-03-10T21:20:39.259Z,25.40
2019-03-10T21:25:07.345Z,37.23
2019-03-10T21:29:15.622Z,32.00
2019-03-10T21:33:28.382Z,32.90
2019-03-10T21:37:36.707Z,29.20
2019-03-10T21:41:42.956Z,33.73
2019-03-10T21:45:50.443Z,33.87
2019-03-10T21:49:56.941Z,34.40
2019-03-10T21:54:05.296Z,32.80
2019-03-10T21:58:13.397Z,35.20
2019-03-10T22:02:19.960Z,35.27
2019-03-10T22:06:28.054Z,38.23
2019-03-10T22:10:36.967Z,36.03
2019-03-10T22:14:47.584Z,39.87
2019-03-10T22:18:56.332Z,36.30
2019-03-10T22:23:07.057Z,41.37
2019-03-10T22:27:15.275Z,35.37
2019-03-10T22:35:35.683Z,35.63
2019-03-10T22:39:47.502Z,36.20
2019-03-10T22:43:54.292Z,35.33
2019-03-10T22:48:01.727Z,38.20
2019-03-10T22:52:14.649Z,41.10
2019-03-10T23:00:47.934Z,37.60
2019-03-10T23:04:57.004Z,30.73
2019-03-10T23:09:05.544Z,39.10
2019-03-10T23:13:17.300Z,33.53
2019-03-10T23:17:23.678Z,37.87
2019-03-10T23:21:30.076Z,31.93
2019-03-10T23:30:12.555Z,35.00
2019-03-10T23:34:24.704Z,32.30
2019-03-10T23:38:31.153Z,31.60
2019-03-10T23:42:43.425Z,25.07
2019-03-10T23:46:51.670Z,36.73
2019-03-10T23:50:58.504Z,32.30
2019-03-10T23:55:07.786Z,32.97
2019-03-10T23:59:17.271Z,27.83
